Terminal Aerodrome Forecast
Issued by NWS

Home | Current Version | Previous Version | Text Only | Print | Product List | Glossary On
Versions: 1 2 3 4 5 6 7 8 9 10 11 12 13
000
FTUS44 KSJT 211732
TAFSOA
TAF
KSOA 211732Z 2118/2218 19012KT P6SM FEW250
     FM220200 18005KT P6SM SCT250
     FM221500 17012KT P6SM SCT250=

USA.gov is the U.S. government's official web portal to all federal, state and local government web resources and services.